Flight Track Log - Related Links

Times and Time Zones

All times are in EDT time to prevent confusion due to time zone crossing. See the GGN7281 flight status page for this flight to view local times or setup timezone preferences in your user account.

Time Position Orientation Groundspeed Altitude Reporting Facility
EDT Latitude Longitude Course Direction KTS MPH feet Rate Location/Type
Mon 05:45:47 PM 43.1239 -77.7531 274° West 173 199 3,400  Level Cleveland Center
Mon 05:46:58 PM 43.1281 -77.8439 274° West 205 236 3,100 137 Descending Cleveland Center
Mon 05:47:58 PM 43.1386 -77.9372 279° West 228 262 3,700 1,250 Climbing Cleveland Center
Mon 05:48:58 PM 43.1508 -78.0164 282° West 235 270 5,600 2,300 Climbing Cleveland Center
Mon 05:49:58 PM 43.1583 -78.0814 279° West 209 241 8,300 2,500 Climbing Cleveland Center
Mon 05:50:58 PM 43.1681 -78.1467 282° West 188 216 10,600 1,350 Climbing Cleveland Center
Mon 05:51:58 PM 43.1781 -78.2258 280° West 188 216 11,000 200 Climbing Cleveland Center
Mon 05:52:58 PM 43.1906 -78.3222 280° West 226 260 11,000  Level Cleveland Center
Mon 05:53:58 PM 43.2028 -78.4186 280° West 251 289 11,000  Level Cleveland Center
Mon 05:54:58 PM 43.2128 -78.5125 278° West 257 296 11,000  Level Cleveland Center
Mon 05:55:58 PM 43.2228 -78.6061 278° West 257 296 11,000  Level Cleveland Center
Mon 05:56:58 PM 43.2347 -78.7025 280° West 257 296 11,000  Level Cleveland Center
Mon 05:57:58 PM 43.2447 -78.7992 278° West 257 296 11,000 -300 Level Cleveland Center
Mon 05:58:58 PM 43.2564 -78.8928 280° West 257 296 10,400 -1,133 Descending Cleveland Center
Mon 05:59:28 PM 43.2500 -78.9500 261° West 270 311 9,300 -933 Descending Toronto Center
Mon 06:00:28 PM 43.2667 -79.0333 285° West 260 299 9,000 -150 Descending Toronto Center
Mon 06:01:28 PM 43.2667 -79.1333 270° West 250 288 9,000  Level Toronto Center
Mon 06:02:28 PM 43.2833 -79.2167 285° West 250 288 9,000 -350 Level Toronto Center
Mon 06:03:28 PM 43.3000 -79.3167 283° West 250 288 8,300 -500 Descending Toronto Center
Mon 06:04:28 PM 43.3500 -79.3833 316° Northwest 260 299 8,000 -100 Descending Toronto Center
Mon 06:06:00 PM 43.4375 -79.4375 324° Northwest  Level FlightAware Approximate
Mon 06:06:28 PM 43.4833 -79.3833 324° Northwest 260 299 8,000  Level Toronto Center
Mon 06:07:28 PM 43.5500 -79.3833 360° North 250 288 8,000  Level Toronto Center
Mon 06:08:28 PM 43.6000 -79.4500 316° Northwest 240 276 8,000 -550 Level Toronto Center
Mon 06:09:28 PM 43.5833 -79.5167 251° West 210 242 6,900 -1,450 Descending Toronto Center
Mon 06:10:28 PM 43.5500 -79.5833 235° Southwest 190 219 5,100 -1,700 Descending Toronto Center
Mon 06:11:28 PM 43.5167 -79.6333 227° Southwest 190 219 3,500 -1,050 Descending Toronto Center
Mon 06:12:28 PM 43.4833 -79.7000 235° Southwest 190 219 3,000 -250 Descending Toronto Center
Mon 06:13:28 PM 43.5000 -79.7667 289° West 200 230 3,000  Level Toronto Center
Mon 06:14:28 PM 43.5500 -79.7500 14° North 210 242 3,000 -400 Level Toronto Center
Mon 06:15:28 PM 43.6000 -79.6833 44° Northeast 190 219 2,200 -850 Descending Toronto Center
Mon 06:16:28 PM 43.6167 -79.6333 65° Northeast 170 196 1,300 -850 Descending Toronto Center
Mon 06:17:28 PM 43.6500 -79.6167 20° North 130 150 500 -400 Descending Toronto Center
Mon 06:18:28 PM 43.6667 -79.5833 55° Northeast 40 46 500  Level Toronto Center

Login

Don't have an account? Register now (free) for customized features, flight alerts, and more!